Time;durP1;ratioP1;P1;durP2;ratioP2;P2;SDS_P1;SDS_P2;PMS_P1;PMS_P2;Temp;Humidity;BMP_temperature;BMP_pressure;BME280_temperature;BME280_humidity;BME280_pressure;Samples;Min_cycle;Max_cycle;Signal;HPM_P1;HPM_P2
2024/01/27 00:02:26;;;;;;;16.90;15.13;;;;;;;19.91;39.65;102136.34;5029408;28;20050;-55
2024/01/27 00:04:53;;;;;;;17.08;15.48;;;;;;;19.91;39.79;102130.97;5024209;28;20046;-55
2024/01/27 00:07:21;;;;;;;15.65;14.10;;;;;;;19.90;39.70;102126.56;5017619;28;20045;-56
2024/01/27 00:09:49;;;;;;;16.10;14.50;;;;;;;19.90;39.54;102123.88;5016266;28;20054;-55
2024/01/27 00:12:16;;;;;;;16.23;14.75;;;;;;;19.89;39.51;102128.38;5017746;28;20050;-55
2024/01/27 00:14:44;;;;;;;16.38;14.57;;;;;;;19.89;39.56;102122.13;5017472;28;20050;-55
2024/01/27 00:17:11;;;;;;;17.23;15.57;;;;;;;19.88;39.45;102121.25;5017226;28;20487;-57
2024/01/27 00:19:39;;;;;;;16.45;14.82;;;;;;;19.88;39.70;102131.16;5020068;28;20049;-57
2024/01/27 00:22:08;;;;;;;17.05;15.20;;;;;;;19.88;39.62;102131.16;5017338;28;20500;-57
2024/01/27 00:24:35;;;;;;;16.17;14.68;;;;;;;19.87;39.65;102121.38;5016757;28;20042;-57
2024/01/27 00:27:04;;;;;;;15.48;13.90;;;;;;;19.88;39.63;102117.72;5017032;28;20069;-57
2024/01/27 00:29:32;;;;;;;16.15;14.55;;;;;;;19.86;39.49;102122.34;5019212;28;20145;-55
2024/01/27 00:31:59;;;;;;;15.80;14.40;;;;;;;19.86;39.29;102122.34;5017268;28;20203;-56
2024/01/27 00:34:27;;;;;;;17.33;15.50;;;;;;;19.84;39.45;102130.50;5015212;28;20049;-55
2024/01/27 00:36:54;;;;;;;15.68;14.13;;;;;;;19.85;39.36;102132.25;5016447;28;20046;-55
2024/01/27 00:39:22;;;;;;;15.18;13.77;;;;;;;19.83;39.36;102119.88;5008066;28;20057;-54
2024/01/27 00:41:51;;;;;;;16.48;14.93;;;;;;;19.83;39.40;102114.50;5029150;28;20057;-55
2024/01/27 00:44:19;;;;;;;16.90;15.30;;;;;;;19.83;39.58;102119.88;5016400;28;20432;-56
2024/01/27 00:46:46;;;;;;;16.30;14.70;;;;;;;19.82;39.46;102124.38;5017249;28;20049;-55
2024/01/27 00:49:13;;;;;;;16.15;14.65;;;;;;;19.81;39.30;102141.47;5019461;28;20499;-55
2024/01/27 00:51:41;;;;;;;15.57;14.13;;;;;;;19.80;39.41;102137.03;5016325;28;20053;-56
2024/01/27 00:54:08;;;;;;;15.77;14.25;;;;;;;19.79;39.42;102142.53;5021010;28;20045;-55
2024/01/27 00:56:36;;;;;;;15.50;14.07;;;;;;;19.79;39.42;102147.91;5020808;28;20052;-56
2024/01/27 00:59:03;;;;;;;15.15;13.57;;;;;;;19.78;39.54;102146.19;5018091;28;20503;-57
2024/01/27 01:01:30;;;;;;;16.90;15.32;;;;;;;19.79;39.36;102164.03;5016696;28;20061;-57
2024/01/27 01:03:58;;;;;;;16.88;15.18;;;;;;;19.75;39.50;102164.22;5023948;28;20046;-57
2024/01/27 01:06:25;;;;;;;15.82;14.32;;;;;;;19.75;39.57;102169.59;5016050;28;20061;-57
2024/01/27 01:08:52;;;;;;;15.40;13.88;;;;;;;19.75;39.50;102169.59;5013218;28;20377;-55
2024/01/27 01:11:20;;;;;;;15.57;14.00;;;;;;;19.75;39.33;102174.97;5019373;28;20049;-56
2024/01/27 01:13:47;;;;;;;14.82;13.43;;;;;;;19.73;39.28;102174.22;5025114;28;20491;-55
2024/01/27 01:16:15;;;;;;;15.20;13.48;;;;;;;19.73;39.27;102181.44;5027369;28;20416;-55
2024/01/27 01:18:42;;;;;;;15.10;13.60;;;;;;;19.73;39.47;102192.19;5019612;28;20045;-57
2024/01/27 01:21:09;;;;;;;14.50;13.07;;;;;;;19.73;39.32;102187.66;5028629;28;20050;-57
2024/01/27 01:23:37;;;;;;;13.40;12.15;;;;;;;19.72;39.44;102182.38;5025159;28;20399;-57
2024/01/27 01:26:04;;;;;;;13.73;12.43;;;;;;;19.72;39.39;102196.66;5021446;28;20065;-59
2024/01/27 01:28:32;;;;;;;14.25;12.43;;;;;;;19.71;39.57;102194.09;5030810;28;20041;-54
2024/01/27 01:30:59;;;;;;;14.52;13.13;;;;;;;19.69;39.27;102202.28;5017250;28;20053;-54
2024/01/27 01:33:27;;;;;;;14.00;12.70;;;;;;;19.69;39.61;102204.97;5025057;28;20488;-55
2024/01/27 01:35:54;;;;;;;14.60;13.30;;;;;;;19.68;39.46;102205.91;5027113;28;20056;-55
2024/01/27 01:38:22;;;;;;;13.82;12.63;;;;;;;19.70;39.47;102203.13;5019135;28;20042;-56
2024/01/27 01:40:49;;;;;;;14.05;12.75;;;;;;;19.68;39.41;102200.53;5028887;28;20098;-56
2024/01/27 01:43:16;;;;;;;12.98;11.68;;;;;;;19.68;39.64;102188.91;5022639;28;20048;-56
2024/01/27 01:45:44;;;;;;;13.82;12.48;;;;;;;19.67;39.49;102189.88;5021290;28;20050;-56
2024/01/27 01:48:11;;;;;;;14.30;12.98;;;;;;;19.66;39.56;102189.03;5030478;28;20045;-58
2024/01/27 01:50:39;;;;;;;13.85;12.45;;;;;;;19.66;39.67;102205.16;5018813;28;20053;-54
2024/01/27 01:53:07;;;;;;;14.25;12.90;;;;;;;19.65;39.70;102200.75;5025012;28;20399;-54
2024/01/27 01:55:35;;;;;;;14.00;12.70;;;;;;;19.65;39.71;102192.69;5026627;28;20049;-54
2024/01/27 01:58:02;;;;;;;13.65;12.25;;;;;;;19.64;39.51;102196.31;5031571;28;20056;-55
2024/01/27 02:00:30;;;;;;;14.40;13.02;;;;;;;19.63;39.51;102208.03;5022890;28;20050;-56
2024/01/27 02:02:58;;;;;;;13.88;12.50;;;;;;;19.64;39.61;102214.25;5024230;28;20050;-57
2024/01/27 02:05:25;;;;;;;13.95;12.65;;;;;;;19.63;39.57;102212.53;5026780;28;20053;-57
2024/01/27 02:07:56;;;;;;;14.32;12.90;;;;;;;19.62;39.57;102214.38;5016441;28;20061;-56
2024/01/27 02:10:23;;;;;;;14.25;12.95;;;;;;;19.62;39.37;102214.38;5013783;28;20042;-56
2024/01/27 02:12:51;;;;;;;14.75;13.30;;;;;;;19.61;39.47;102209.06;5023822;28;20054;-55
2024/01/27 02:15:18;;;;;;;12.95;11.65;;;;;;;19.62;39.46;102211.69;5028698;28;20404;-57
2024/01/27 02:17:46;;;;;;;13.38;11.98;;;;;;;19.61;39.35;102209.97;5022371;28;20057;-57
2024/01/27 02:20:13;;;;;;;13.27;11.98;;;;;;;19.62;39.24;102221.56;5035772;28;20365;-57
2024/01/27 02:22:41;;;;;;;13.65;12.25;;;;;;;19.61;39.28;102220.72;5027372;28;20084;-57
2024/01/27 02:25:08;;;;;;;13.63;12.32;;;;;;;19.62;39.35;102225.13;5030204;28;20060;-57
2024/01/27 02:27:35;;;;;;;14.13;12.73;;;;;;;19.62;39.38;102225.13;5022532;28;20045;-55
2024/01/27 02:30:04;;;;;;;13.57;12.27;;;;;;;19.61;39.42;102220.72;5031137;28;20054;-56
2024/01/27 02:32:31;;;;;;;13.95;12.63;;;;;;;19.60;39.30;102218.94;5025855;28;20487;-56
2024/01/27 02:34:59;;;;;;;13.18;11.90;;;;;;;19.59;39.35;102219.91;5023592;28;20057;-56
2024/01/27 02:37:26;;;;;;;13.98;12.57;;;;;;;19.58;39.37;102218.19;5033917;28;20865;-56
2024/01/27 02:39:53;;;;;;;13.60;12.30;;;;;;;19.60;39.51;102215.38;5019022;28;20388;-57
2024/01/27 02:42:21;;;;;;;13.40;12.10;;;;;;;19.59;39.56;102216.34;5026479;28;20061;-57
2024/01/27 02:44:48;;;;;;;12.40;11.20;;;;;;;19.58;39.40;102215.50;5030213;28;20041;-57
2024/01/27 02:47:15;;;;;;;13.23;12.00;;;;;;;19.58;39.40;102220.00;5029366;28;20052;-57
2024/01/27 02:49:43;;;;;;;12.93;11.73;;;;;;;19.58;39.39;102222.69;5031283;28;20050;-57
2024/01/27 02:52:10;;;;;;;12.88;11.68;;;;;;;19.57;39.52;102212.91;5025921;28;20069;-57
2024/01/27 02:54:38;;;;;;;12.65;11.40;;;;;;;19.57;39.51;102215.59;5023152;28;20057;-57
2024/01/27 02:57:05;;;;;;;12.52;11.27;;;;;;;19.56;39.49;102209.34;5033645;28;20046;-57
2024/01/27 02:59:33;;;;;;;12.25;11.15;;;;;;;19.56;39.67;102221.91;5019079;28;20504;-57
2024/01/27 03:02:01;;;;;;;12.38;11.18;;;;;;;19.55;39.48;102226.44;5026774;28;20412;-57
2024/01/27 03:04:28;;;;;;;12.63;11.32;;;;;;;19.56;39.68;102219.25;5017793;28;20050;-57
2024/01/27 03:06:56;;;;;;;12.35;11.15;;;;;;;19.54;39.74;102213.97;5021205;28;20069;-57
2024/01/27 03:09:23;;;;;;;12.27;11.18;;;;;;;19.54;39.43;102218.50;5027185;28;20042;-55
2024/01/27 03:11:51;;;;;;;12.30;11.10;;;;;;;19.54;39.61;102223.88;5013976;28;20041;-55
2024/01/27 03:14:18;;;;;;;13.20;11.93;;;;;;;19.54;39.80;102223.88;5017592;28;20500;-55
2024/01/27 03:16:45;;;;;;;12.90;11.45;;;;;;;19.53;39.61;102225.69;5019342;28;20049;-55
2024/01/27 03:19:13;;;;;;;11.95;10.80;;;;;;;19.52;39.56;102226.63;5018371;28;20050;-55
2024/01/27 03:21:40;;;;;;;11.38;10.27;;;;;;;19.53;39.70;102225.69;5025335;28;20053;-55
2024/01/27 03:24:08;;;;;;;12.43;11.23;;;;;;;19.52;39.65;102223.94;5027612;28;20050;-54
2024/01/27 03:26:35;;;;;;;10.98;9.90;;;;;;;19.51;39.67;102223.09;5019815;28;20393;-55
2024/01/27 03:29:02;;;;;;;11.20;10.10;;;;;;;19.51;39.78;102227.59;5018250;28;20049;-56
2024/01/27 03:31:31;;;;;;;11.25;10.23;;;;;;;19.51;39.71;102222.22;5026264;28;20053;-55
2024/01/27 03:34:00;;;;;;;12.05;10.90;;;;;;;19.50;39.63;102232.13;5029211;28;20049;-55
2024/01/27 03:36:28;;;;;;;11.85;10.75;;;;;;;19.50;39.72;102245.53;5020350;28;20202;-55
2024/01/27 03:38:57;;;;;;;11.57;10.48;;;;;;;19.49;39.71;102237.59;5030122;28;20045;-57
2024/01/27 03:41:25;;;;;;;11.73;10.50;;;;;;;19.49;39.80;102233.09;5025117;28;20041;-57
2024/01/27 03:43:52;;;;;;;11.45;10.32;;;;;;;19.48;39.61;102228.66;5021760;28;20439;-57
2024/01/27 03:46:19;;;;;;;11.13;10.10;;;;;;;19.49;39.61;102232.22;5032524;28;20123;-57
2024/01/27 03:48:47;;;;;;;10.98;9.90;;;;;;;19.50;39.57;102231.25;5021139;28;20427;-56
2024/01/27 03:51:14;;;;;;;11.15;10.05;;;;;;;19.48;39.66;102241.22;5025537;28;20049;-55
2024/01/27 03:53:42;;;;;;;10.57;9.57;;;;;;;19.48;39.58;102241.22;5028871;28;20056;-54
2024/01/27 03:56:13;;;;;;;10.77;9.77;;;;;;;19.47;39.65;102245.72;5018685;28;20056;-56
2024/01/27 03:58:40;;;;;;;11.05;10.00;;;;;;;19.47;39.51;102247.56;5029005;28;20050;-57
2024/01/27 04:01:07;;;;;;;11.07;9.95;;;;;;;19.47;39.61;102252.94;5016238;28;20046;-57
2024/01/27 04:03:35;;;;;;;11.05;10.05;;;;;;;19.47;39.61;102261.84;5029044;28;20041;-57
2024/01/27 04:06:02;;;;;;;11.75;10.75;;;;;;;19.46;39.59;102253.91;5019630;28;20049;-57
2024/01/27 04:08:30;;;;;;;11.32;10.32;;;;;;;19.48;39.48;102260.03;5028944;28;20049;-54
2024/01/27 04:10:58;;;;;;;10.90;9.80;;;;;;;19.46;39.53;102256.59;5012844;28;20076;-55
2024/01/27 04:13:25;;;;;;;10.50;9.40;;;;;;;19.45;39.53;102258.41;5013923;28;20045;-55
2024/01/27 04:15:53;;;;;;;10.07;9.10;;;;;;;19.45;39.46;102263.78;5017932;28;20041;-55
2024/01/27 04:18:21;;;;;;;10.82;9.65;;;;;;;19.46;39.52;102270.00;5018879;28;20406;-57
2024/01/27 04:20:49;;;;;;;10.63;9.60;;;;;;;19.45;39.39;102274.53;5024278;28;20761;-57
2024/01/27 04:23:16;;;;;;;10.95;9.90;;;;;;;19.45;39.41;102262.94;5015754;28;20042;-57
2024/01/27 04:25:44;;;;;;;11.23;9.82;;;;;;;19.44;39.33;102264.72;5017106;28;20049;-57
2024/01/27 04:28:12;;;;;;;10.68;9.73;;;;;;;19.44;39.37;102267.41;5015559;28;20046;-57
2024/01/27 04:30:40;;;;;;;11.45;10.38;;;;;;;19.43;39.43;102265.69;5015540;28;20056;-57
2024/01/27 04:33:07;;;;;;;9.98;9.02;;;;;;;19.43;39.53;102275.56;5015295;28;20053;-57
2024/01/27 04:35:35;;;;;;;9.73;8.82;;;;;;;19.44;39.51;102274.59;5017369;28;20041;-57
2024/01/27 04:38:03;;;;;;;11.30;10.18;;;;;;;19.43;39.55;102273.75;5016059;28;20058;-58
2024/01/27 04:40:30;;;;;;;10.30;9.40;;;;;;;19.43;39.53;102279.13;5015552;28;20068;-57
2024/01/27 04:42:58;;;;;;;10.35;9.35;;;;;;;19.42;39.40;102268.47;5015120;28;20042;-56
2024/01/27 04:45:25;;;;;;;10.95;9.95;;;;;;;19.42;39.50;102269.34;5017317;28;20053;-57
2024/01/27 04:47:53;;;;;;;10.10;9.10;;;;;;;19.42;39.61;102257.75;5015209;28;20508;-57
2024/01/27 04:50:21;;;;;;;9.95;9.05;;;;;;;19.42;39.59;102261.28;5013824;28;20060;-57
2024/01/27 04:52:48;;;;;;;10.82;9.73;;;;;;;19.41;39.60;102247.97;5026988;28;20060;-57
2024/01/27 04:55:16;;;;;;;10.05;9.15;;;;;;;19.41;39.74;102254.19;5029300;28;20049;-57
2024/01/27 04:57:43;;;;;;;10.27;9.27;;;;;;;19.40;39.61;102255.13;5018376;28;20042;-54
2024/01/27 05:00:12;;;;;;;10.23;9.23;;;;;;;19.40;39.78;102259.66;5015154;28;20053;-55
2024/01/27 05:02:41;;;;;;;9.95;8.95;;;;;;;19.40;39.71;102262.34;5015760;28;20042;-55
2024/01/27 05:05:09;;;;;;;10.02;9.13;;;;;;;19.39;39.75;102264.16;5017337;28;20045;-56
2024/01/27 05:07:36;;;;;;;10.85;9.80;;;;;;;19.38;39.65;102261.59;5015391;28;20076;-57
2024/01/27 05:10:04;;;;;;;9.35;8.48;;;;;;;19.38;39.75;102267.81;5013600;28;20049;-57
2024/01/27 05:12:32;;;;;;;10.50;9.50;;;;;;;19.37;39.70;102262.56;5010607;28;20061;-57
2024/01/27 05:14:59;;;;;;;10.70;9.55;;;;;;;19.37;39.67;102266.09;5016547;28;20506;-57
2024/01/27 05:17:26;;;;;;;10.15;9.15;;;;;;;19.37;39.78;102265.22;5026575;28;20045;-57
2024/01/27 05:19:54;;;;;;;10.30;9.25;;;;;;;19.36;39.76;102261.66;5022729;28;20171;-57
2024/01/27 05:22:21;;;;;;;10.15;9.20;;;;;;;19.36;39.89;102263.50;5018811;28;20804;-57
2024/01/27 05:24:49;;;;;;;9.93;9.02;;;;;;;19.36;39.69;102266.16;5030684;28;20055;-59
2024/01/27 05:27:16;;;;;;;9.80;8.90;;;;;;;19.36;39.76;102258.97;5025061;28;20050;-57
2024/01/27 05:29:44;;;;;;;9.25;8.35;;;;;;;19.35;39.71;102269.81;5023570;28;20415;-57
2024/01/27 05:32:11;;;;;;;9.77;8.88;;;;;;;19.35;39.82;102276.06;5018818;28;20046;-57
2024/01/27 05:34:38;;;;;;;10.35;9.25;;;;;;;19.36;39.68;102277.78;5030783;28;20049;-57
2024/01/27 05:37:06;;;;;;;9.43;8.45;;;;;;;19.36;39.69;102279.59;5018992;28;20522;-55
2024/01/27 05:39:34;;;;;;;11.27;10.18;;;;;;;19.35;39.60;102283.25;5022289;28;20837;-58
2024/01/27 05:42:02;;;;;;;8.98;8.18;;;;;;;19.35;39.60;102278.75;5028467;28;20053;-57
2024/01/27 05:44:30;;;;;;;9.32;8.50;;;;;;;19.36;39.78;102279.59;5030032;28;20054;-56
2024/01/27 05:46:57;;;;;;;9.40;8.50;;;;;;;19.35;39.78;102283.25;5019657;28;20049;-57
2024/01/27 05:49:28;;;;;;;9.95;9.00;;;;;;;19.35;39.70;102283.25;5020411;28;20058;-57
2024/01/27 05:51:55;;;;;;;10.88;9.77;;;;;;;19.34;39.87;102293.13;5032019;28;20423;-56
2024/01/27 05:54:22;;;;;;;10.40;9.30;;;;;;;19.35;39.75;102291.31;5021867;28;20053;-56
2024/01/27 05:56:50;;;;;;;9.52;8.63;;;;;;;19.36;39.77;102295.72;5029690;28;20046;-57
2024/01/27 05:59:17;;;;;;;9.85;8.90;;;;;;;19.36;39.89;102301.09;5028142;28;20060;-57
2024/01/27 06:01:45;;;;;;;9.52;8.63;;;;;;;19.35;39.73;102307.41;5029828;28;20427;-56
2024/01/27 06:04:12;;;;;;;9.00;8.10;;;;;;;19.35;39.88;102312.78;5016773;28;20046;-56
2024/01/27 06:06:40;;;;;;;9.50;8.50;;;;;;;19.34;39.72;102327.19;5023611;28;20053;-55
2024/01/27 06:09:11;;;;;;;9.43;8.45;;;;;;;19.33;39.90;102325.47;5025304;28;20057;-57
2024/01/27 06:11:39;;;;;;;9.48;8.60;;;;;;;19.33;39.92;102333.53;5031950;28;20049;-54
2024/01/27 06:14:06;;;;;;;9.60;8.68;;;;;;;19.32;39.72;102338.00;5015073;28;20049;-55
2024/01/27 06:16:35;;;;;;;10.07;9.07;;;;;;;19.32;39.87;102337.13;5023875;28;20049;-55
2024/01/27 06:19:02;;;;;;;10.10;9.00;;;;;;;19.32;39.94;102346.06;5034200;28;20049;-58
2024/01/27 06:21:30;;;;;;;9.75;8.85;;;;;;;19.31;39.93;102338.09;5020975;28;20519;-54
2024/01/27 06:23:58;;;;;;;10.02;9.13;;;;;;;19.30;39.97;102336.38;5032690;28;20054;-55
2024/01/27 06:26:25;;;;;;;9.48;8.38;;;;;;;19.30;39.87;102344.44;5017525;28;20050;-55
2024/01/27 06:28:53;;;;;;;9.77;8.80;;;;;;;19.31;39.92;102340.78;5017144;28;20042;-57
2024/01/27 06:31:21;;;;;;;9.32;8.43;;;;;;;19.29;39.72;102346.28;5017307;28;20116;-57
2024/01/27 06:33:48;;;;;;;10.20;9.20;;;;;;;19.28;39.81;102341.84;5018236;28;20050;-56
2024/01/27 06:36:16;;;;;;;10.40;9.23;;;;;;;19.29;39.65;102340.03;5016977;28;20049;-57
2024/01/27 06:38:43;;;;;;;9.48;8.57;;;;;;;19.29;39.75;102338.22;5015635;28;20061;-55
2024/01/27 06:41:11;;;;;;;10.32;9.15;;;;;;;19.28;39.72;102333.78;5017261;28;20077;-57
2024/01/27 06:43:38;;;;;;;10.75;9.30;;;;;;;19.27;39.73;102343.66;5031269;28;20037;-57
2024/01/27 06:46:06;;;;;;;10.40;9.40;;;;;;;19.28;39.71;102341.84;5016711;28;20050;-57
2024/01/27 06:48:33;;;;;;;9.95;8.95;;;;;;;19.26;39.65;102350.00;5017579;28;20052;-55
2024/01/27 06:51:01;;;;;;;10.75;9.40;;;;;;;19.27;39.58;102350.84;5017319;28;20045;-53
2024/01/27 06:53:28;;;;;;;10.32;9.38;;;;;;;19.26;39.46;102351.81;5017532;28;20053;-55
2024/01/27 06:55:55;;;;;;;9.75;8.75;;;;;;;19.26;39.61;102347.31;5017004;28;20046;-55
2024/01/27 06:58:23;;;;;;;9.80;8.80;;;;;;;19.26;39.52;102349.13;5027547;28;20046;-55
2024/01/27 07:00:50;;;;;;;11.32;10.23;;;;;;;19.25;39.56;102353.66;5019816;28;20045;-55
2024/01/27 07:03:18;;;;;;;9.98;9.07;;;;;;;19.26;39.48;102355.38;5019497;28;20044;-56
2024/01/27 07:05:45;;;;;;;10.88;9.77;;;;;;;19.26;39.63;102347.31;5027391;28;20048;-56
2024/01/27 07:08:13;;;;;;;11.02;9.95;;;;;;;19.25;39.27;102353.66;5027291;28;20045;-56
2024/01/27 07:10:40;;;;;;;10.30;9.30;;;;;;;19.26;39.49;102354.50;5020019;28;20404;-56
2024/01/27 07:13:08;;;;;;;10.55;9.52;;;;;;;19.25;39.45;102358.16;5029362;28;20097;-56
2024/01/27 07:15:37;;;;;;;9.80;8.80;;;;;;;19.24;39.46;102364.47;5013783;28;20042;-57
2024/01/27 07:18:05;;;;;;;11.27;9.70;;;;;;;19.25;39.47;102369.75;5015772;28;20385;-56
2024/01/27 07:20:33;;;;;;;10.30;9.40;;;;;;;19.25;39.50;102369.75;5030092;28;20085;-56
2024/01/27 07:23:00;;;;;;;10.20;9.27;;;;;;;19.24;39.56;102368.03;5016205;28;20049;-58
2024/01/27 07:25:28;;;;;;;10.18;9.10;;;;;;;19.24;39.68;102370.72;5030526;28;20056;-58
2024/01/27 07:27:55;;;;;;;10.48;9.38;;;;;;;19.24;39.42;102359.97;5023367;28;20053;-57
2024/01/27 07:30:23;;;;;;;9.77;8.88;;;;;;;19.24;39.57;102368.03;5015802;28;20061;-56
2024/01/27 07:32:50;;;;;;;10.02;9.02;;;;;;;19.23;39.66;102368.97;5016343;28;20050;-56
2024/01/27 07:35:18;;;;;;;10.20;9.20;;;;;;;19.24;39.59;102365.34;5015849;28;20045;-56
2024/01/27 07:37:45;;;;;;;9.75;8.77;;;;;;;19.23;39.59;102363.59;5015546;28;20068;-57
2024/01/27 07:40:13;;;;;;;9.93;9.02;;;;;;;19.23;39.63;102363.59;5015671;28;20049;-57
2024/01/27 07:42:41;;;;;;;10.20;9.15;;;;;;;19.24;39.68;102362.66;5015943;28;20488;-57
2024/01/27 07:45:09;;;;;;;12.18;9.52;;;;;;;19.23;39.55;102363.59;5015544;28;20038;-57
2024/01/27 07:47:36;;;;;;;9.80;8.88;;;;;;;19.23;39.65;102355.56;5015131;28;20046;-57
2024/01/27 07:50:04;;;;;;;10.13;9.20;;;;;;;19.23;39.62;102357.38;5015760;28;20105;-57
2024/01/27 07:52:32;;;;;;;9.43;8.52;;;;;;;19.24;39.70;102359.09;5015652;28;20412;-57
2024/01/27 07:54:59;;;;;;;9.10;8.10;;;;;;;19.23;39.66;102357.38;5015152;28;20046;-57
2024/01/27 07:57:28;;;;;;;10.13;9.23;;;;;;;19.23;39.57;102360.91;5022580;28;20052;-54
2024/01/27 07:59:55;;;;;;;10.32;9.30;;;;;;;19.23;39.70;102363.59;5018734;28;20527;-54
2024/01/27 08:02:23;;;;;;;9.65;8.75;;;;;;;19.22;39.88;102358.34;5018945;28;20044;-51
2024/01/27 08:04:50;;;;;;;12.65;10.45;;;;;;;19.22;39.73;102361.88;5025535;28;20046;-55
2024/01/27 08:07:17;;;;;;;10.57;9.48;;;;;;;19.23;39.68;102363.59;5014879;28;20056;-56
2024/01/27 08:09:45;;;;;;;10.48;8.90;;;;;;;19.24;39.79;102357.31;5015802;28;20049;-51
2024/01/27 08:12:12;;;;;;;10.50;9.38;;;;;;;19.25;39.88;102347.41;5014863;28;20423;-54
2024/01/27 08:14:40;;;;;;;9.25;8.18;;;;;;;19.25;39.98;102348.28;5012790;28;20038;-54
2024/01/27 08:17:07;;;;;;;9.98;8.55;;;;;;;19.27;40.02;102364.28;5023345;28;20041;-54
2024/01/27 08:19:35;;;;;;;9.25;7.88;;;;;;;19.27;39.95;102367.81;5016655;28;20041;-55
2024/01/27 08:22:03;;;;;;;9.75;8.65;;;;;;;19.28;40.12;102368.69;5025812;28;20046;-53
2024/01/27 08:24:30;;;;;;;9.98;8.98;;;;;;;19.30;40.15;102365.94;5020816;28;20052;-55
2024/01/27 08:26:58;;;;;;;11.02;9.05;;;;;;;19.31;40.23;102362.28;5020613;28;20050;-56
2024/01/27 08:29:26;;;;;;;8.73;7.88;;;;;;;19.32;40.27;102366.69;5028576;28;20061;-57
2024/01/27 08:31:53;;;;;;;9.55;8.35;;;;;;;19.32;40.05;102364.00;5014647;28;20042;-57
2024/01/27 08:34:20;;;;;;;9.98;8.82;;;;;;;19.33;40.01;102363.06;5014021;28;20046;-57
2024/01/27 08:36:48;;;;;;;10.15;9.13;;;;;;;19.33;39.85;102371.13;5014303;28;20045;-58
2024/01/27 08:39:15;;;;;;;10.02;8.60;;;;;;;19.32;40.02;102369.38;5014314;28;20057;-57
2024/01/27 08:41:43;;;;;;;10.15;9.15;;;;;;;19.32;40.11;102388.16;5029061;28;20050;-58
2024/01/27 08:44:11;;;;;;;9.00;8.15;;;;;;;19.32;39.93;102397.06;5015018;28;20045;-57
2024/01/27 08:46:38;;;;;;;9.90;8.93;;;;;;;19.32;40.06;102410.50;5021147;28;20054;-56
2024/01/27 08:49:06;;;;;;;9.52;8.63;;;;;;;19.34;39.87;102415.81;5014912;28;20050;-58
2024/01/27 08:51:34;;;;;;;10.10;9.00;;;;;;;19.36;39.80;102403.13;5014022;28;20052;-58
2024/01/27 08:54:02;;;;;;;9.80;8.80;;;;;;;19.39;39.59;102406.50;5013941;28;20037;-59
2024/01/27 08:56:29;;;;;;;10.05;9.05;;;;;;;19.43;39.60;102418.78;5014272;28;20405;-59
2024/01/27 08:58:56;;;;;;;9.48;8.52;;;;;;;19.42;39.43;102414.38;5029897;28;20057;-60
2024/01/27 09:01:24;;;;;;;10.73;9.30;;;;;;;19.45;39.43;102416.03;5017923;28;20048;-60
2024/01/27 09:03:51;;;;;;;10.18;9.07;;;;;;;19.46;39.57;102421.28;5025037;28;20042;-53
2024/01/27 09:06:19;;;;;;;10.30;9.30;;;;;;;19.48;39.42;102418.50;5025612;28;20056;-59
2024/01/27 09:08:46;;;;;;;8.65;7.75;;;;;;;19.47;39.59;102423.00;5017420;28;20484;-58
2024/01/27 09:11:14;;;;;;;10.35;9.32;;;;;;;19.48;39.47;102429.22;5027980;28;20057;-55
2024/01/27 09:13:41;;;;;;;10.02;8.98;;;;;;;19.48;39.35;102418.50;5021076;28;20045;-56
2024/01/27 09:16:12;;;;;;;10.68;9.40;;;;;;;19.48;39.40;102423.88;5013755;28;20038;-58
2024/01/27 09:18:39;;;;;;;10.57;9.48;;;;;;;19.48;39.32;102421.19;5023592;28;20503;-56
2024/01/27 09:21:07;;;;;;;10.68;9.68;;;;;;;19.51;39.35;102415.63;5017336;28;20049;-56
2024/01/27 09:23:35;;;;;;;9.75;8.77;;;;;;;19.52;39.64;102420.03;5023853;28;20042;-56
2024/01/27 09:26:03;;;;;;;9.80;8.80;;;;;;;19.52;39.86;102428.09;5029921;28;20053;-57
2024/01/27 09:28:30;;;;;;;14.73;13.30;;;;;;;19.52;39.63;102425.41;5020359;28;20049;-54
2024/01/27 09:30:57;;;;;;;17.15;15.40;;;;;;;19.50;39.54;102428.19;5017120;28;20393;-55
2024/01/27 09:33:25;;;;;;;18.23;16.45;;;;;;;19.48;39.28;102426.53;5017202;28;20045;-55
2024/01/27 09:35:53;;;;;;;18.02;15.95;;;;;;;19.49;39.27;102415.72;5017615;28;20053;-56
2024/01/27 09:38:20;;;;;;;18.45;16.67;;;;;;;19.47;39.18;102424.81;5017875;28;20046;-56
2024/01/27 09:40:47;;;;;;;17.65;15.30;;;;;;;19.49;39.24;102436.34;5017480;28;20400;-59
2024/01/27 09:43:18;;;;;;;16.90;15.23;;;;;;;19.53;39.38;102429.84;5033921;28;20049;-59
2024/01/27 09:45:45;;;;;;;17.48;15.68;;;;;;;19.58;39.37;102433.09;5034384;28;20046;-59
2024/01/27 09:48:13;;;;;;;15.25;13.65;;;;;;;19.64;39.35;102431.88;5034406;28;20050;-62
2024/01/27 09:50:41;;;;;;;14.80;13.10;;;;;;;19.70;39.47;102431.50;5031703;28;20046;-60
2024/01/27 09:53:10;;;;;;;11.95;10.75;;;;;;;19.74;39.39;102436.59;5017454;28;20056;-64
2024/01/27 09:55:37;;;;;;;12.75;11.45;;;;;;;19.79;39.45;102440.81;5016825;28;20062;-59
2024/01/27 09:58:05;;;;;;;11.85;10.73;;;;;;;19.82;39.30;102437.94;5033313;28;20053;-60
2024/01/27 10:00:36;;;;;;;11.98;10.68;;;;;;;19.85;39.47;102448.47;5031099;28;20117;-59
2024/01/27 10:03:05;;;;;;;13.55;11.23;;;;;;;19.85;39.52;102460.13;5016851;28;20053;-60
2024/01/27 10:05:35;;;;;;;12.35;11.05;;;;;;;19.87;39.45;102451.94;5016749;28;20098;-60
2024/01/27 10:08:06;;;;;;;11.70;10.55;;;;;;;19.89;39.31;102453.59;5024265;28;20483;-57
2024/01/27 10:10:35;;;;;;;11.23;9.95;;;;;;;19.87;39.63;102446.56;5016711;28;20052;-58
2024/01/27 10:13:04;;;;;;;11.52;9.90;;;;;;;19.85;39.57;102448.47;5017402;28;20053;-57
2024/01/27 10:15:31;;;;;;;10.85;9.65;;;;;;;19.82;39.58;102448.69;5020384;28;20057;-57
2024/01/27 10:18:07;;;;;;;10.35;9.35;;;;;;;19.79;39.74;102448.88;5014498;28;20048;-58
2024/01/27 10:20:34;;;;;;;11.93;10.10;;;;;;;19.77;39.89;102438.25;5016473;28;20049;-58
2024/01/27 10:23:12;;;;;;;12.98;9.55;;;;;;;19.75;39.89;102449.06;5016055;28;20404;-57
2024/01/27 10:25:40;;;;;;;11.38;9.50;;;;;;;19.72;39.79;102437.63;5016637;28;20045;-58
2024/01/27 10:28:09;;;;;;;9.93;9.02;;;;;;;19.72;39.93;102429.56;5021534;28;20041;-59
2024/01/27 10:30:37;;;;;;;9.52;8.63;;;;;;;19.73;39.91;102417.88;5025544;28;20054;-58
2024/01/27 10:33:04;;;;;;;9.35;8.55;;;;;;;19.75;39.74;102424.88;5029918;28;20045;-56
2024/01/27 10:35:32;;;;;;;9.70;8.77;;;;;;;19.79;39.82;102433.63;5018917;28;20046;-64
2024/01/27 10:38:02;;;;;;;8.88;7.97;;;;;;;19.84;39.83;102441.38;5029577;28;20050;-59
2024/01/27 10:40:30;;;;;;;9.02;8.13;;;;;;;19.86;39.69;102442.16;5025597;28;20049;-60
2024/01/27 10:43:07;;;;;;;9.43;8.43;;;;;;;19.89;39.72;102440.16;5021282;28;20052;-58
2024/01/27 10:45:40;;;;;;;8.82;7.93;;;;;;;19.91;39.59;102450.81;5032248;28;20156;-57
2024/01/27 10:48:10;;;;;;;8.32;7.40;;;;;;;19.92;39.65;102439.94;5024478;28;20049;-61
2024/01/27 10:50:40;;;;;;;8.48;7.40;;;;;;;19.94;39.68;102434.47;5022692;28;20046;-61
2024/01/27 10:53:39;;;;;;;;;;;;;;;19.93;39.68;102441.69;5031709;28;20384;-58
2024/01/27 10:56:10;;;;;;;10.25;9.20;;;;;;;19.94;39.44;102445.25;5024411;28;19921;-58
2024/01/27 10:58:41;;;;;;;8.88;7.97;;;;;;;19.94;39.48;102443.41;5021398;28;20408;-57
2024/01/27 11:01:11;;;;;;;9.20;8.27;;;;;;;19.97;39.98;102437.84;5031788;28;20056;-57
2024/01/27 11:03:40;;;;;;;8.70;7.47;;;;;;;19.96;40.19;102435.22;5020224;28;20443;-59
2024/01/27 11:06:08;;;;;;;9.48;8.48;;;;;;;19.95;39.75;102425.47;5024018;28;20049;-58
2024/01/27 11:08:37;;;;;;;9.00;8.10;;;;;;;19.92;39.99;102434.56;5029949;28;20076;-63
2024/01/27 11:11:11;;;;;;;9.27;8.13;;;;;;;19.89;40.04;102429.41;5018962;28;20049;-63
2024/01/27 11:13:39;;;;;;;9.27;7.80;;;;;;;19.90;39.97;102433.81;5027347;28;20057;-60
2024/01/27 11:16:15;;;;;;;10.23;8.32;;;;;;;19.92;39.92;102441.75;5021141;28;20048;-61
2024/01/27 11:18:42;;;;;;;8.27;7.47;;;;;;;19.93;40.15;102432.72;5013959;28;20488;-60
2024/01/27 11:21:17;;;;;;;8.98;7.63;;;;;;;19.95;39.94;102433.53;5014903;28;20511;-60